Wetterdaten: Woche 12.10.09 - 18.10.09 (KW42)
Datum Zeit Temperatur Luftfeuchte Luftdruck Niederschlag Wind Richtung Sonnenschein Solar Taupunkt Windchill Windben
12.10.2009 00:00 11.6 C 91 % 1012.4 hPa 0.2 l/m 5.5 km/h (1 Bft) W-SW 0.00 h 0 W/m 10.2 C 11.6 C 9.7 km/h (2 Bft)
12.10.2009 01:00 11.4 C 92 % 1011.0 hPa 0.4 l/m 3.6 km/h (1 Bft) W-SW 0.00 h 0 W/m 10.1 C 11.4 C 6.7 km/h (2 Bft)
12.10.2009 02:00 11.5 C 93 % 1009.9 hPa 1.8 l/m 4.0 km/h (1 Bft) SW 0.00 h 0 W/m 10.5 C 11.5 C 6.9 km/h (2 Bft)
12.10.2009 03:00 11.8 C 96 % 1008.7 hPa 1.2 l/m 8.6 km/h (2 Bft) SW 0.00 h 0 W/m 11.2 C 11.8 C 14.5 km/h (3 Bft)
12.10.2009 04:00 12.3 C 97 % 1007.6 hPa 1.2 l/m 18.8 km/h (3 Bft) W 0.00 h 0 W/m 11.9 C 12.3 C 28.8 km/h (4 Bft)
12.10.2009 05:00 11.4 C 95 % 1008.7 hPa 0.2 l/m 17.7 km/h (3 Bft) W 0.00 h 0 W/m 10.6 C 11.4 C 26.8 km/h (4 Bft)
12.10.2009 06:00 10.2 C 86 % 1010.5 hPa 0.0 l/m 15.2 km/h (3 Bft) W-NW 0.00 h 0 W/m 7.9 C 10.2 C 24.0 km/h (4 Bft)
12.10.2009 07:00 9.8 C 75 % 1012.1 hPa 0.0 l/m 11.3 km/h (2 Bft) W-NW 0.03 h 9 W/m 5.6 C 8.3 C 18.1 km/h (3 Bft)
12.10.2009 08:00 9.6 C 75 % 1014.4 hPa 0.0 l/m 5.3 km/h (1 Bft) W-NW 0.17 h 52 W/m 5.4 C 9.1 C 8.3 km/h (2 Bft)
12.10.2009 09:00 9.9 C 78 % 1016.0 hPa 0.0 l/m 7.7 km/h (2 Bft) W 0.18 h 87 W/m 6.3 C 9.5 C 12.4 km/h (3 Bft)
12.10.2009 10:00 10.3 C 76 % 1016.5 hPa 0.0 l/m 9.0 km/h (2 Bft) W 0.00 h 95 W/m 6.2 C 10.3 C 14.4 km/h (3 Bft)
12.10.2009 11:00 11.0 C 74 % 1016.8 hPa 0.2 l/m 12.6 km/h (3 Bft) W 0.00 h 149 W/m 6.6 C 11.0 C 19.9 km/h (4 Bft)
12.10.2009 12:00 11.3 C 76 % 1017.1 hPa 0.0 l/m 9.2 km/h (2 Bft) W 0.03 h 148 W/m 7.3 C 11.3 C 14.6 km/h (3 Bft)
12.10.2009 13:00 11.9 C 74 % 1017.6 hPa 0.0 l/m 11.0 km/h (2 Bft) W 0.25 h 328 W/m 7.3 C 11.9 C 18.1 km/h (3 Bft)
12.10.2009 14:00 12.8 C 65 % 1017.7 hPa 0.0 l/m 9.7 km/h (2 Bft) W 0.58 h 422 W/m 6.3 C 12.8 C 15.3 km/h (3 Bft)
12.10.2009 15:00 12.9 C 68 % 1017.9 hPa 0.2 l/m 10.8 km/h (2 Bft) W 0.13 h 137 W/m 7.1 C 12.9 C 17.4 km/h (3 Bft)
12.10.2009 16:00 11.8 C 76 % 1019.1 hPa 0.0 l/m 3.0 km/h (1 Bft) W 0.20 h 142 W/m 7.8 C 11.8 C 5.8 km/h (2 Bft)
12.10.2009 17:00 12.3 C 62 % 1020.0 hPa 0.0 l/m 7.6 km/h (2 Bft) N-NW 0.40 h 94 W/m 5.3 C 12.3 C 12.8 km/h (3 Bft)
12.10.2009 18:00 11.6 C 62 % 1021.7 hPa 0.0 l/m 8.2 km/h (2 Bft) N 0.00 h 11 W/m 4.6 C 11.6 C 14.1 km/h (3 Bft)
12.10.2009 19:00 9.9 C 62 % 1023.2 hPa 0.0 l/m 3.4 km/h (1 Bft) O-NO 0.00 h 0 W/m 3.1 C 9.9 C 6.4 km/h (2 Bft)
12.10.2009 20:00 9.0 C 69 % 1024.3 hPa 0.0 l/m 1.1 km/h (0 Bft) O-NO 0.00 h 0 W/m 3.7 C 8.9 C 2.1 km/h (1 Bft)
12.10.2009 21:00 7.3 C 77 % 1025.4 hPa 0.0 l/m 3.8 km/h (1 Bft) O-SO 0.00 h 0 W/m 3.6 C 7.0 C 5.5 km/h (1 Bft)
12.10.2009 22:00 6.6 C 82 % 1026.1 hPa 0.0 l/m 0.2 km/h (0 Bft) NO 0.00 h 0 W/m 3.7 C 6.6 C 0.7 km/h (0 Bft)
12.10.2009 23:00 6.6 C 86 % 1026.4 hPa 0.0 l/m 1.9 km/h (1 Bft) N-NW 0.00 h 0 W/m 4.5 C 6.6 C 4.0 km/h (1 Bft)
13.10.2009 00:00 7.0 C 87 % 1026.2 hPa 0.0 l/m 2.9 km/h (1 Bft) O-SO 0.00 h 0 W/m 5.0 C 6.8 C 4.4 km/h (1 Bft)
13.10.2009 01:00 6.3 C 87 % 1026.2 hPa 0.0 l/m 3.6 km/h (1 Bft) O-SO 0.00 h 0 W/m 4.4 C 6.0 C 5.2 km/h (1 Bft)
13.10.2009 02:00 6.2 C 89 % 1025.9 hPa 0.0 l/m 3.1 km/h (1 Bft) O-SO 0.00 h 0 W/m 4.5 C 5.8 C 4.2 km/h (1 Bft)
13.10.2009 03:00 6.2 C 90 % 1025.5 hPa 0.0 l/m 2.6 km/h (1 Bft) O-SO 0.00 h 0 W/m 4.6 C 5.9 C 3.7 km/h (1 Bft)
13.10.2009 04:00 6.4 C 90 % 1025.2 hPa 0.0 l/m 0.8 km/h (0 Bft) SO 0.00 h 0 W/m 4.9 C 6.4 C 1.7 km/h (1 Bft)
13.10.2009 05:00 6.6 C 90 % 1025.2 hPa 0.0 l/m 0.8 km/h (0 Bft) SO 0.00 h 0 W/m 5.1 C 6.6 C 1.4 km/h (1 Bft)
13.10.2009 06:00 6.8 C 89 % 1025.5 hPa 0.0 l/m 0.3 km/h (0 Bft) SO 0.00 h 0 W/m 5.1 C 6.8 C 1.0 km/h (0 Bft)
13.10.2009 07:00 6.4 C 89 % 1025.9 hPa 0.0 l/m 0.4 km/h (0 Bft) O-SO 0.07 h 9 W/m 4.7 C 6.4 C 1.4 km/h (1 Bft)
13.10.2009 08:00 6.0 C 90 % 1026.7 hPa 0.0 l/m 0.7 km/h (0 Bft) NO 0.00 h 43 W/m 4.6 C 6.0 C 2.0 km/h (1 Bft)
13.10.2009 09:00 7.3 C 90 % 1027.5 hPa 0.0 l/m 0.5 km/h (0 Bft) N-NW 0.23 h 129 W/m 5.8 C 7.3 C 1.4 km/h (1 Bft)
13.10.2009 10:00 8.8 C 84 % 1027.7 hPa 0.0 l/m 0.4 km/h (0 Bft) O 0.60 h 292 W/m 6.2 C 8.8 C 1.4 km/h (1 Bft)
13.10.2009 11:00 10.5 C 65 % 1027.3 hPa 0.0 l/m 1.2 km/h (1 Bft) W 0.92 h 420 W/m 4.2 C 10.5 C 3.0 km/h (1 Bft)
13.10.2009 12:00 11.3 C 60 % 1026.9 hPa 0.0 l/m 2.9 km/h (1 Bft) W 0.33 h 351 W/m 3.8 C 11.3 C 5.3 km/h (1 Bft)
13.10.2009 13:00 11.3 C 60 % 1026.3 hPa 0.0 l/m 3.6 km/h (1 Bft) W 0.32 h 318 W/m 3.8 C 11.3 C 6.6 km/h (2 Bft)
13.10.2009 14:00 12.0 C 56 % 1025.8 hPa 0.0 l/m 5.7 km/h (1 Bft) W 0.23 h 239 W/m 3.6 C 12.0 C 9.0 km/h (2 Bft)
13.10.2009 15:00 11.9 C 50 % 1025.4 hPa 0.0 l/m 6.1 km/h (2 Bft) N-NW 0.52 h 308 W/m 1.7 C 11.9 C 10.3 km/h (2 Bft)
13.10.2009 16:00 12.3 C 48 % 1025.1 hPa 0.0 l/m 6.9 km/h (2 Bft) N-NW 0.20 h 139 W/m 1.6 C 12.3 C 11.8 km/h (2 Bft)
13.10.2009 17:00 11.7 C 48 % 1025.3 hPa 0.0 l/m 7.5 km/h (2 Bft) W-NW 0.92 h 128 W/m 1.1 C 11.7 C 12.3 km/h (3 Bft)
13.10.2009 18:00 11.0 C 55 % 1025.7 hPa 0.0 l/m 1.7 km/h (1 Bft) W-NW 0.08 h 25 W/m 2.2 C 11.0 C 3.4 km/h (1 Bft)
13.10.2009 19:00 9.3 C 66 % 1026.2 hPa 0.0 l/m 1.0 km/h (0 Bft) O-SO 0.00 h 0 W/m 3.2 C 9.3 C 1.9 km/h (1 Bft)
13.10.2009 20:00 8.5 C 70 % 1026.2 hPa 0.0 l/m 0.9 km/h (0 Bft) O-SO 0.00 h 0 W/m 3.3 C 8.5 C 2.0 km/h (1 Bft)
13.10.2009 21:00 7.9 C 72 % 1026.2 hPa 0.0 l/m 1.8 km/h (1 Bft) O-SO 0.00 h 0 W/m 3.1 C 7.8 C 3.4 km/h (1 Bft)
13.10.2009 22:00 7.9 C 73 % 1025.9 hPa 0.0 l/m 1.0 km/h (0 Bft) O-SO 0.00 h 0 W/m 3.4 C 7.9 C 2.0 km/h (1 Bft)
13.10.2009 23:00 7.6 C 74 % 1025.2 hPa 0.0 l/m 0.6 km/h (0 Bft) SO 0.00 h 0 W/m 3.2 C 7.6 C 1.8 km/h (1 Bft)
14.10.2009 00:00 6.8 C 76 % 1024.9 hPa 0.0 l/m 1.4 km/h (1 Bft) O-SO 0.00 h 0 W/m 2.9 C 6.8 C 2.6 km/h (1 Bft)
14.10.2009 01:00 5.7 C 82 % 1024.9 hPa 0.0 l/m 5.0 km/h (1 Bft) O-SO 0.00 h 0 W/m 2.9 C 5.0 C 6.9 km/h (2 Bft)
14.10.2009 02:00 5.4 C 84 % 1024.9 hPa 0.0 l/m 2.3 km/h (1 Bft) SO 0.00 h 0 W/m 2.9 C 5.4 C 3.7 km/h (1 Bft)
14.10.2009 03:00 5.6 C 85 % 1024.8 hPa 0.0 l/m 1.2 km/h (1 Bft) O 0.00 h 0 W/m 3.4 C 5.6 C 2.2 km/h (1 Bft)
14.10.2009 04:00 5.7 C 86 % 1025.0 hPa 0.0 l/m 0.9 km/h (0 Bft) O-SO 0.00 h 0 W/m 3.5 C 5.7 C 1.5 km/h (1 Bft)
14.10.2009 05:00 5.1 C 86 % 1025.1 hPa 0.0 l/m 0.6 km/h (0 Bft) O 0.00 h 0 W/m 3.1 C 5.1 C 1.5 km/h (1 Bft)
14.10.2009 06:00 4.6 C 88 % 1025.6 hPa 0.0 l/m 0.3 km/h (0 Bft) O 0.00 h 0 W/m 2.7 C 4.6 C 0.9 km/h (0 Bft)
14.10.2009 07:00 4.6 C 90 % 1025.7 hPa 0.0 l/m 1.0 km/h (0 Bft) N-NO 0.00 h 6 W/m 3.1 C 4.6 C 2.6 km/h (1 Bft)
14.10.2009 08:00 4.7 C 88 % 1026.1 hPa 0.2 l/m 1.0 km/h (0 Bft) N-NO 0.00 h 33 W/m 2.9 C 4.7 C 3.3 km/h (1 Bft)
14.10.2009 09:00 5.2 C 87 % 1026.1 hPa 0.0 l/m 1.1 km/h (0 Bft) O-SO 0.05 h 102 W/m 3.3 C 5.2 C 3.0 km/h (1 Bft)
14.10.2009 10:00 6.2 C 80 % 1026.2 hPa 0.0 l/m 2.3 km/h (1 Bft) O-SO 0.32 h 203 W/m 3.0 C 6.0 C 5.6 km/h (1 Bft)
14.10.2009 11:00 6.7 C 71 % 1026.7 hPa 0.0 l/m 2.6 km/h (1 Bft) O-SO 0.12 h 190 W/m 1.8 C 6.6 C 6.1 km/h (2 Bft)
14.10.2009 12:00 8.8 C 58 % 1026.4 hPa 0.0 l/m 4.6 km/h (1 Bft) N 0.97 h 569 W/m 0.9 C 8.4 C 9.3 km/h (2 Bft)
14.10.2009 13:00 9.3 C 51 % 1026.1 hPa 0.0 l/m 5.6 km/h (1 Bft) N 0.67 h 455 W/m -0.4 C 8.7 C 10.3 km/h (2 Bft)
14.10.2009 14:00 9.4 C 50 % 1025.6 hPa 0.0 l/m 4.6 km/h (1 Bft) O-SO 0.35 h 307 W/m -0.5 C 9.0 C 8.7 km/h (2 Bft)
14.10.2009 15:00 8.9 C 49 % 1025.6 hPa 0.0 l/m 3.4 km/h (1 Bft) O-SO 0.48 h 302 W/m -1.3 C 8.7 C 7.6 km/h (2 Bft)
14.10.2009 16:00 8.3 C 49 % 1025.6 hPa 0.0 l/m 3.0 km/h (1 Bft) O-SO 0.28 h 152 W/m -1.8 C 8.1 C 6.0 km/h (2 Bft)
14.10.2009 17:00 8.5 C 46 % 1025.8 hPa 0.0 l/m 3.7 km/h (1 Bft) O-SO 0.87 h 129 W/m -2.5 C 8.1 C 7.8 km/h (2 Bft)
14.10.2009 18:00 7.4 C 48 % 1026.3 hPa 0.0 l/m 1.9 km/h (1 Bft) NO 0.15 h 21 W/m -2.9 C 7.4 C 5.1 km/h (1 Bft)
14.10.2009 19:00 5.4 C 55 % 1027.1 hPa 0.0 l/m 2.7 km/h (1 Bft) NO 0.00 h 0 W/m -3.0 C 5.2 C 6.2 km/h (2 Bft)
14.10.2009 20:00 4.3 C 59 % 1027.2 hPa 0.0 l/m 3.3 km/h (1 Bft) NO 0.00 h 0 W/m -3.0 C 3.9 C 7.1 km/h (2 Bft)
14.10.2009 21:00 3.5 C 64 % 1027.2 hPa 0.0 l/m 0.7 km/h (0 Bft) O 0.00 h 0 W/m -2.6 C 3.5 C 2.3 km/h (1 Bft)
14.10.2009 22:00 2.9 C 66 % 1027.2 hPa 0.0 l/m 1.9 km/h (1 Bft) NO 0.00 h 0 W/m -2.9 C 2.8 C 5.2 km/h (1 Bft)
14.10.2009 23:00 2.7 C 70 % 1026.7 hPa 0.0 l/m 2.2 km/h (1 Bft) O 0.00 h 0 W/m -2.2 C 2.6 C 6.0 km/h (2 Bft)
15.10.2009 00:00 2.1 C 72 % 1026.5 hPa 0.0 l/m 0.9 km/h (0 Bft) N-NO 0.00 h 0 W/m -2.3 C 2.1 C 2.5 km/h (1 Bft)
15.10.2009 01:00 1.4 C 75 % 1026.5 hPa 0.0 l/m 0.6 km/h (0 Bft) NO 0.00 h 0 W/m -2.5 C 1.3 C 2.0 km/h (1 Bft)
15.10.2009 02:00 0.6 C 78 % 1026.4 hPa 0.0 l/m 1.2 km/h (1 Bft) N-NO 0.00 h 0 W/m -2.8 C 0.6 C 3.2 km/h (1 Bft)
15.10.2009 03:00 0.2 C 79 % 1026.2 hPa 0.0 l/m 0.4 km/h (0 Bft) N 0.00 h 0 W/m -3.0 C 0.2 C 1.8 km/h (1 Bft)
15.10.2009 04:00 -0.2 C 82 % 1026.0 hPa 0.0 l/m 0.1 km/h (0 Bft) W-NW 0.00 h 0 W/m -2.9 C -0.2 C 0.3 km/h (0 Bft)
15.10.2009 05:00 -0.2 C 84 % 1025.8 hPa 0.0 l/m 0.4 km/h (0 Bft) O 0.00 h 0 W/m -2.5 C -0.2 C 1.3 km/h (1 Bft)
15.10.2009 06:00 -0.4 C 85 % 1025.8 hPa 0.0 l/m 1.5 km/h (1 Bft) O 0.00 h 0 W/m -2.6 C -0.5 C 2.9 km/h (1 Bft)
15.10.2009 07:00 -1.0 C 86 % 1026.1 hPa 0.0 l/m 1.7 km/h (1 Bft) O 0.03 h 8 W/m -3.1 C -1.0 C 2.4 km/h (1 Bft)
15.10.2009 08:00 -1.3 C 87 % 1026.6 hPa 0.0 l/m 0.0 km/h (0 Bft) N 0.30 h 56 W/m -3.2 C -1.3 C 0.1 km/h (0 Bft)
15.10.2009 09:00 1.1 C 80 % 1026.5 hPa 0.0 l/m 1.1 km/h (1 Bft) O-SO 0.97 h 202 W/m -2.0 C 1.0 C 3.0 km/h (1 Bft)
15.10.2009 10:00 4.2 C 64 % 1026.5 hPa 0.0 l/m 3.6 km/h (1 Bft) O 1.00 h 338 W/m -2.0 C 3.7 C 7.2 km/h (2 Bft)
15.10.2009 11:00 4.9 C 55 % 1026.1 hPa 0.0 l/m 3.7 km/h (1 Bft) N-NO 0.53 h 277 W/m -3.2 C 4.5 C 7.7 km/h (2 Bft)
15.10.2009 12:00 5.4 C 53 % 1025.9 hPa 0.0 l/m 3.1 km/h (1 Bft) O-SO 0.50 h 373 W/m -3.4 C 5.1 C 6.8 km/h (2 Bft)
15.10.2009 13:00 6.9 C 47 % 1025.4 hPa 0.0 l/m 5.2 km/h (1 Bft) N-NW 0.92 h 546 W/m -3.7 C 6.3 C 9.7 km/h (2 Bft)
15.10.2009 14:00 6.9 C 45 % 1025.1 hPa 0.0 l/m 3.6 km/h (1 Bft) O-SO 0.65 h 384 W/m -4.2 C 6.5 C 7.0 km/h (2 Bft)
15.10.2009 15:00 7.3 C 42 % 1024.9 hPa 0.0 l/m 4.4 km/h (1 Bft) O-SO 1.00 h 399 W/m -4.7 C 6.8 C 8.4 km/h (2 Bft)
15.10.2009 16:00 7.0 C 44 % 1024.8 hPa 0.0 l/m 4.8 km/h (1 Bft) O-SO 0.78 h 231 W/m -4.5 C 6.4 C 8.8 km/h (2 Bft)
15.10.2009 17:00 6.9 C 45 % 1024.9 hPa 0.0 l/m 1.6 km/h (1 Bft) SO 0.90 h 119 W/m -4.1 C 6.8 C 3.4 km/h (1 Bft)
15.10.2009 18:00 6.2 C 50 % 1025.4 hPa 0.0 l/m 0.3 km/h (0 Bft) NO 0.13 h 20 W/m -3.4 C 6.2 C 1.5 km/h (1 Bft)
15.10.2009 19:00 4.1 C 61 % 1026.4 hPa 0.0 l/m 1.9 km/h (1 Bft) NO 0.00 h 0 W/m -2.7 C 3.9 C 3.2 km/h (1 Bft)
15.10.2009 20:00 3.0 C 71 % 1026.7 hPa 0.0 l/m 1.7 km/h (1 Bft) O-SO 0.00 h 0 W/m -1.8 C 2.9 C 2.9 km/h (1 Bft)
15.10.2009 21:00 2.9 C 75 % 1026.9 hPa 0.0 l/m 0.4 km/h (0 Bft) N-NW 0.00 h 0 W/m -1.2 C 2.9 C 1.5 km/h (1 Bft)
15.10.2009 22:00 3.0 C 74 % 1026.9 hPa 0.0 l/m 0.5 km/h (0 Bft) N-NO 0.00 h 0 W/m -1.1 C 3.0 C 1.6 km/h (1 Bft)
15.10.2009 23:00 2.8 C 78 % 1026.9 hPa 0.0 l/m 0.7 km/h (0 Bft) NO 0.00 h 0 W/m -0.6 C 2.8 C 1.5 km/h (1 Bft)
16.10.2009 00:00 2.5 C 78 % 1026.7 hPa 0.0 l/m 0.1 km/h (0 Bft) NO 0.00 h 0 W/m -1.0 C 2.5 C 0.5 km/h (0 Bft)
16.10.2009 01:00 2.5 C 80 % 1026.5 hPa 0.0 l/m 0.1 km/h (0 Bft) W-NW 0.00 h 0 W/m -0.5 C 2.5 C 0.7 km/h (0 Bft)
16.10.2009 02:00 2.6 C 83 % 1026.2 hPa 0.0 l/m 0.1 km/h (0 Bft) W-NW 0.00 h 0 W/m -0.0 C 2.6 C 0.8 km/h (0 Bft)
16.10.2009 03:00 2.7 C 83 % 1025.8 hPa 0.0 l/m 1.5 km/h (1 Bft) N 0.00 h 0 W/m 0.0 C 2.6 C 3.2 km/h (1 Bft)
16.10.2009 04:00 2.7 C 81 % 1025.2 hPa 0.0 l/m 0.4 km/h (0 Bft) NW 0.00 h 0 W/m -0.2 C 2.7 C 1.3 km/h (1 Bft)
16.10.2009 05:00 2.7 C 82 % 1025.5 hPa 0.0 l/m 0.5 km/h (0 Bft) N-NO 0.00 h 0 W/m -0.0 C 2.7 C 1.6 km/h (1 Bft)
16.10.2009 06:00 2.7 C 84 % 1025.9 hPa 0.0 l/m 0.2 km/h (0 Bft) N 0.00 h 0 W/m 0.2 C 2.7 C 0.8 km/h (0 Bft)
16.10.2009 07:00 2.6 C 84 % 1026.5 hPa 0.0 l/m 0.2 km/h (0 Bft) N 0.00 h 0 W/m 0.2 C 2.6 C 0.8 km/h (0 Bft)
16.10.2009 08:00 2.7 C 84 % 1027.3 hPa 0.0 l/m 0.3 km/h (0 Bft) N 0.00 h 21 W/m 0.3 C 2.7 C 0.7 km/h (0 Bft)
16.10.2009 09:00 3.3 C 79 % 1027.3 hPa 0.0 l/m 2.0 km/h (1 Bft) W-SW 0.00 h 81 W/m -0.0 C 3.2 C 4.1 km/h (1 Bft)
16.10.2009 10:00 5.9 C 65 % 1027.3 hPa 0.0 l/m 2.0 km/h (1 Bft) W-SW 0.77 h 308 W/m -0.2 C 5.8 C 4.5 km/h (1 Bft)
16.10.2009 11:00 7.0 C 62 % 1026.4 hPa 0.0 l/m 2.3 km/h (1 Bft) SW 0.28 h 244 W/m 0.3 C 6.9 C 4.9 km/h (1 Bft)
16.10.2009 12:00 8.0 C 58 % 1025.5 hPa 0.0 l/m 5.5 km/h (1 Bft) W 0.65 h 326 W/m 0.3 C 7.3 C 8.7 km/h (2 Bft)
16.10.2009 13:00 9.0 C 53 % 1024.3 hPa 0.0 l/m 9.3 km/h (2 Bft) W 0.72 h 389 W/m 0.0 C 7.6 C 14.7 km/h (3 Bft)
16.10.2009 14:00 8.9 C 52 % 1023.6 hPa 0.0 l/m 10.0 km/h (2 Bft) W 0.02 h 174 W/m -0.4 C 7.4 C 15.5 km/h (3 Bft)
16.10.2009 15:00 8.0 C 54 % 1023.0 hPa 0.0 l/m 6.6 km/h (2 Bft) W 0.00 h 69 W/m -0.7 C 7.1 C 10.6 km/h (2 Bft)
16.10.2009 16:00 7.6 C 58 % 1022.6 hPa 0.0 l/m 6.1 km/h (2 Bft) W 0.00 h 41 W/m -0.2 C 6.7 C 10.1 km/h (2 Bft)
16.10.2009 17:00 7.2 C 62 % 1022.6 hPa 0.0 l/m 7.9 km/h (2 Bft) W 0.00 h 31 W/m 0.4 C 5.9 C 13.0 km/h (3 Bft)
16.10.2009 18:00 6.3 C 77 % 1022.8 hPa 0.0 l/m 6.8 km/h (2 Bft) W-NW 0.00 h 13 W/m 2.7 C 5.1 C 11.1 km/h (2 Bft)
16.10.2009 19:00 5.5 C 86 % 1023.2 hPa 0.4 l/m 8.8 km/h (2 Bft) W-NW 0.00 h 0 W/m 3.3 C 3.6 C 13.3 km/h (3 Bft)
16.10.2009 20:00 5.2 C 90 % 1023.2 hPa 0.0 l/m 7.8 km/h (2 Bft) W-NW 0.00 h 0 W/m 3.7 C 3.6 C 13.7 km/h (3 Bft)
16.10.2009 21:00 5.3 C 90 % 1022.9 hPa 0.0 l/m 6.2 km/h (2 Bft) W 0.00 h 0 W/m 3.8 C 4.0 C 11.6 km/h (2 Bft)
16.10.2009 22:00 5.5 C 91 % 1022.4 hPa 0.0 l/m 2.3 km/h (1 Bft) W-NW 0.00 h 0 W/m 4.1 C 5.2 C 4.4 km/h (1 Bft)
16.10.2009 23:00 5.7 C 91 % 1021.8 hPa 0.0 l/m 2.0 km/h (1 Bft) W 0.00 h 0 W/m 4.3 C 5.6 C 4.0 km/h (1 Bft)
17.10.2009 00:00 5.6 C 90 % 1021.4 hPa 0.0 l/m 2.9 km/h (1 Bft) W-SW 0.00 h 0 W/m 4.1 C 5.4 C 5.4 km/h (1 Bft)
17.10.2009 01:00 5.7 C 90 % 1021.3 hPa 0.0 l/m 5.2 km/h (1 Bft) W 0.00 h 0 W/m 4.2 C 4.8 C 8.8 km/h (2 Bft)
17.10.2009 02:00 5.9 C 90 % 1020.9 hPa 0.0 l/m 7.8 km/h (2 Bft) W 0.00 h 0 W/m 4.4 C 4.3 C 12.5 km/h (3 Bft)
17.10.2009 03:00 6.0 C 89 % 1020.6 hPa 0.0 l/m 9.3 km/h (2 Bft) W 0.00 h 0 W/m 4.2 C 4.0 C 14.7 km/h (3 Bft)
17.10.2009 04:00 5.9 C 88 % 1020.3 hPa 0.0 l/m 9.4 km/h (2 Bft) W 0.00 h 0 W/m 4.0 C 4.0 C 16.2 km/h (3 Bft)
17.10.2009 05:00 5.8 C 86 % 1020.3 hPa 0.0 l/m 8.2 km/h (2 Bft) W 0.00 h 0 W/m 3.6 C 4.1 C 13.6 km/h (3 Bft)
17.10.2009 06:00 5.9 C 85 % 1020.3 hPa 0.0 l/m 9.8 km/h (2 Bft) W 0.00 h 0 W/m 3.6 C 3.8 C 16.2 km/h (3 Bft)
17.10.2009 07:00 5.7 C 86 % 1020.5 hPa 0.0 l/m 7.9 km/h (2 Bft) W 0.02 h 6 W/m 3.6 C 4.1 C 12.8 km/h (3 Bft)
17.10.2009 08:00 5.7 C 87 % 1020.5 hPa 0.0 l/m 6.8 km/h (2 Bft) W 0.00 h 12 W/m 3.7 C 4.4 C 11.9 km/h (2 Bft)
17.10.2009 09:00 5.9 C 86 % 1020.8 hPa 0.0 l/m 7.4 km/h (2 Bft) W 0.00 h 34 W/m 3.8 C 4.4 C 12.3 km/h (3 Bft)
17.10.2009 10:00 6.3 C 85 % 1020.5 hPa 0.0 l/m 9.9 km/h (2 Bft) W 0.00 h 79 W/m 3.9 C 4.3 C 16.3 km/h (3 Bft)
17.10.2009 11:00 6.5 C 84 % 1020.5 hPa 0.0 l/m 8.2 km/h (2 Bft) W 0.00 h 97 W/m 3.9 C 4.9 C 13.9 km/h (3 Bft)
17.10.2009 12:00 7.8 C 79 % 1020.0 hPa 0.0 l/m 7.8 km/h (2 Bft) W 0.20 h 224 W/m 4.3 C 6.5 C 13.1 km/h (3 Bft)
17.10.2009 13:00 8.7 C 76 % 1019.8 hPa 0.2 l/m 6.7 km/h (2 Bft) W 0.13 h 182 W/m 4.7 C 7.9 C 10.9 km/h (2 Bft)
17.10.2009 14:00 9.3 C 65 % 1019.6 hPa 0.0 l/m 9.2 km/h (2 Bft) W 0.83 h 448 W/m 3.1 C 8.0 C 14.4 km/h (3 Bft)
17.10.2009 15:00 9.6 C 61 % 1019.5 hPa 0.0 l/m 9.3 km/h (2 Bft) W-NW 0.45 h 246 W/m 2.5 C 8.8 C 15.9 km/h (3 Bft)
17.10.2009 16:00 9.5 C 61 % 1019.6 hPa 0.0 l/m 5.8 km/h (2 Bft) W-NW 0.88 h 244 W/m 2.2 C 9.0 C 9.1 km/h (2 Bft)
17.10.2009 17:00 10.0 C 58 % 1019.8 hPa 0.0 l/m 7.2 km/h (2 Bft) N-NW 0.75 h 106 W/m 2.1 C 9.8 C 11.6 km/h (2 Bft)
17.10.2009 18:00 8.3 C 64 % 1020.5 hPa 0.0 l/m 2.1 km/h (1 Bft) W-NW 0.03 h 14 W/m 1.9 C 8.2 C 4.2 km/h (1 Bft)
17.10.2009 19:00 6.5 C 72 % 1021.2 hPa 0.0 l/m 1.2 km/h (1 Bft) N 0.00 h 0 W/m 1.8 C 6.5 C 2.8 km/h (1 Bft)
17.10.2009 20:00 6.2 C 76 % 1021.7 hPa 0.0 l/m 0.7 km/h (0 Bft) O-NO 0.00 h 0 W/m 2.2 C 6.2 C 1.8 km/h (1 Bft)
17.10.2009 21:00 5.8 C 77 % 1022.0 hPa 0.0 l/m 0.1 km/h (0 Bft) SO 0.00 h 0 W/m 2.1 C 5.8 C 0.5 km/h (0 Bft)
17.10.2009 22:00 5.4 C 80 % 1022.2 hPa 0.0 l/m 1.2 km/h (1 Bft) SO 0.00 h 0 W/m 2.2 C 5.4 C 1.7 km/h (1 Bft)
17.10.2009 23:00 4.9 C 84 % 1022.1 hPa 0.0 l/m 0.7 km/h (0 Bft) SO 0.00 h 0 W/m 2.4 C 4.9 C 1.3 km/h (1 Bft)
18.10.2009 00:00 4.8 C 85 % 1021.9 hPa 0.0 l/m 0.0 km/h (0 Bft) N 0.00 h 0 W/m 2.5 C 4.8 C 0.1 km/h (0 Bft)
18.10.2009 01:00 4.0 C 87 % 1021.9 hPa 0.0 l/m 0.3 km/h (0 Bft) SO 0.00 h 0 W/m 2.0 C 4.0 C 0.7 km/h (0 Bft)
18.10.2009 02:00 3.7 C 90 % 1021.5 hPa 0.0 l/m 0.1 km/h (0 Bft) SO 0.00 h 0 W/m 2.3 C 3.7 C 0.3 km/h (0 Bft)
18.10.2009 03:00 3.6 C 92 % 1021.7 hPa 0.0 l/m 0.0 km/h (0 Bft) N 0.00 h 0 W/m 2.4 C 3.6 C 0.1 km/h (0 Bft)
18.10.2009 04:00 3.2 C 92 % 1021.3 hPa 0.0 l/m 0.1 km/h (0 Bft) N 0.00 h 0 W/m 2.0 C 3.2 C 0.6 km/h (0 Bft)
18.10.2009 05:00 2.8 C 92 % 1021.4 hPa 0.0 l/m 0.1 km/h (0 Bft) N 0.00 h 0 W/m 1.6 C 2.8 C 0.5 km/h (0 Bft)
18.10.2009 06:00 3.0 C 94 % 1021.5 hPa 0.0 l/m 0.1 km/h (0 Bft) S-SO 0.00 h 0 W/m 2.1 C 3.0 C 0.4 km/h (0 Bft)
18.10.2009 07:00 3.2 C 94 % 1021.7 hPa 0.0 l/m 0.2 km/h (0 Bft) S-SO 0.00 h 0 W/m 2.3 C 3.2 C 0.8 km/h (0 Bft)
18.10.2009 08:00 3.5 C 95 % 1022.0 hPa 0.0 l/m 0.5 km/h (0 Bft) S-SO 0.00 h 16 W/m 2.8 C 3.5 C 1.1 km/h (1 Bft)
18.10.2009 09:00 3.9 C 95 % 1022.2 hPa 0.0 l/m 0.2 km/h (0 Bft) S-SO 0.00 h 68 W/m 3.3 C 3.9 C 1.4 km/h (1 Bft)
18.10.2009 10:00 4.9 C 95 % 1022.1 hPa 0.2 l/m 0.4 km/h (0 Bft) S-SO 0.00 h 92 W/m 4.2 C 4.9 C 1.6 km/h (1 Bft)
18.10.2009 11:00 5.3 C 93 % 1022.2 hPa 0.8 l/m 0.6 km/h (0 Bft) N-NO 0.00 h 62 W/m 4.3 C 5.3 C 1.8 km/h (1 Bft)
18.10.2009 12:00 5.5 C 93 % 1022.2 hPa 0.0 l/m 1.4 km/h (1 Bft) W-SW 0.10 h 207 W/m 4.5 C 5.5 C 3.3 km/h (1 Bft)
18.10.2009 13:00 6.2 C 90 % 1021.8 hPa 0.0 l/m 0.7 km/h (0 Bft) SO 0.00 h 188 W/m 4.7 C 6.2 C 2.2 km/h (1 Bft)
18.10.2009 14:00 6.9 C 82 % 1021.6 hPa 0.0 l/m 1.0 km/h (0 Bft) SO 0.72 h 323 W/m 4.1 C 6.9 C 2.6 km/h (1 Bft)
18.10.2009 15:00 8.0 C 78 % 1021.5 hPa 0.0 l/m 1.2 km/h (1 Bft) NW 0.12 h 141 W/m 4.4 C 8.0 C 2.8 km/h (1 Bft)
18.10.2009 16:00 7.9 C 77 % 1021.4 hPa 0.0 l/m 2.2 km/h (1 Bft) W-NW 0.00 h 88 W/m 4.0 C 7.8 C 4.0 km/h (1 Bft)
18.10.2009 17:00 7.2 C 78 % 1021.5 hPa 0.0 l/m 1.2 km/h (1 Bft) W 0.00 h 48 W/m 3.7 C 7.2 C 2.7 km/h (1 Bft)
18.10.2009 18:00 6.4 C 81 % 1021.8 hPa 0.0 l/m 0.2 km/h (0 Bft) W 0.00 h 13 W/m 3.5 C 6.4 C 0.8 km/h (0 Bft)
18.10.2009 19:00 5.7 C 83 % 1022.1 hPa 0.0 l/m 0.5 km/h (0 Bft) N-NO 0.00 h 0 W/m 3.1 C 5.7 C 1.7 km/h (1 Bft)
18.10.2009 20:00 5.4 C 81 % 1022.2 hPa 0.0 l/m 1.2 km/h (1 Bft) O 0.00 h 0 W/m 2.5 C 5.4 C 3.5 km/h (1 Bft)
18.10.2009 21:00 5.2 C 80 % 1022.2 hPa 0.0 l/m 0.2 km/h (0 Bft) NO 0.00 h 0 W/m 2.1 C 5.2 C 1.2 km/h (1 Bft)
18.10.2009 22:00 4.3 C 82 % 1022.2 hPa 0.0 l/m 0.4 km/h (0 Bft) NO 0.00 h 0 W/m 1.5 C 4.3 C 1.6 km/h (1 Bft)
18.10.2009 23:00 2.9 C 85 % 1022.3 hPa 0.0 l/m 0.1 km/h (0 Bft) N-NO 0.00 h 0 W/m 0.7 C 2.9 C 1.0 km/h (0 Bft)
Min-Datum _ 15.10.09 15.10.09 12.10.09 - 12.10.09 - - - 15.10.09 15.10.09 12.10.09
_ Min-Zeit 08:00 15:42 04:45 - 00:02 - - - 15:42 06:15 16:37
Minimum _ -1.4 C 38 % 1007.5 hPa - 0.0 km/h (0 Bft) - - - -6.0 C -2.0 C 0.0 km/h (0 Bft)
Max-Datum _ 12.10.09 12.10.09 13.10.09 12.10.09 12.10.09 - 12.10.09 12.10.09 12.10.09 12.10.09 12.10.09
_ Max-Zeit 14:31 04:46 10:15 02:09 04:53 - 07:52 13:20 04:46 14:30 04:55
Maximum _ 13.6 C 100 % 1027.8 hPa 1.8 l/m 27.8 km/h
W (4 Bft)
- 0.02 h 788 W/m 12.4 C 13.6 C 46.9 km/h
W (6 Bft)
Durchschnitt _ 6.5 C 76 % 1023.1 hPa #7.2 l/m 3.5 km/h (1 Bft) W #25:02 h 172 W/m 2.2 C 6.2 C 6.3 km/h (2 Bft)
© Kaiko 2009